Time;durP1;ratioP1;P1;durP2;ratioP2;P2;SDS_P1;SDS_P2;PMS_P1;PMS_P2;Temp;Humidity;BMP_temperature;BMP_pressure;BME280_temperature;BME280_humidity;BME280_pressure;Samples;Min_cycle;Max_cycle;Signal;HPM_P1;HPM_P2
2020/12/16 00:00:21;;;;;;;0.82;0.57;;;9.90;99.90;;;;;;4175982;28;20045;-91
2020/12/16 00:02:25;;;;;;;0.20;0.20;;;9.90;99.90;;;;;;4188380;28;20052;-88
2020/12/16 00:04:26;;;;;;;5.18;1.08;;;9.90;99.90;;;;;;4180999;28;20048;-88
2020/12/16 00:06:28;;;;;;;0.98;0.40;;;9.90;99.90;;;;;;4180512;28;20060;-88
2020/12/16 00:08:29;;;;;;;2.47;0.52;;;9.90;99.90;;;;;;4192652;28;20503;-88
2020/12/16 00:10:31;;;;;;;0.52;0.40;;;9.90;99.90;;;;;;4197671;28;20436;-87
2020/12/16 00:12:33;;;;;;;2.80;0.63;;;9.90;99.90;;;;;;4194916;28;20139;-88
2020/12/16 00:14:34;;;;;;;0.25;0.22;;;9.90;99.90;;;;;;4179535;28;20056;-89
2020/12/16 00:16:36;;;;;;;0.93;0.75;;;9.80;99.90;;;;;;4166115;28;20140;-88
2020/12/16 00:18:38;;;;;;;1.23;0.70;;;9.80;99.90;;;;;;4195481;28;20181;-88
2020/12/16 00:20:40;;;;;;;0.35;0.35;;;9.80;99.90;;;;;;4191106;28;20048;-88
2020/12/16 00:22:41;;;;;;;0.50;0.32;;;9.70;99.90;;;;;;4179813;28;24675;-88
2020/12/16 00:24:43;;;;;;;0.40;0.32;;;9.80;99.90;;;;;;4180988;28;20143;-88
2020/12/16 00:26:44;;;;;;;0.20;0.20;;;9.70;99.90;;;;;;4193309;28;20070;-89
2020/12/16 00:28:45;;;;;;;0.68;0.60;;;9.80;99.90;;;;;;4180464;28;20505;-89
2020/12/16 00:30:47;;;;;;;1.13;0.57;;;9.80;99.90;;;;;;4169017;28;20065;-88
2020/12/16 00:32:49;;;;;;;1.02;0.60;;;9.80;99.90;;;;;;4181157;28;20469;-88
2020/12/16 00:34:50;;;;;;;2.33;0.82;;;9.80;99.90;;;;;;4180028;28;20120;-89
2020/12/16 00:36:52;;;;;;;5.43;0.65;;;9.70;99.90;;;;;;4175715;28;20485;-88
2020/12/16 00:38:53;;;;;;;0.98;0.88;;;9.70;99.90;;;;;;4188208;28;20567;-89
2020/12/16 00:40:54;;;;;;;1.27;0.60;;;9.60;99.90;;;;;;4196449;28;20563;-90
2020/12/16 00:42:55;;;;;;;0.63;0.32;;;9.60;99.90;;;;;;4179809;28;20489;-89
2020/12/16 00:44:57;;;;;;;0.43;0.43;;;9.60;99.90;;;;;;4185173;28;20094;-88
2020/12/16 00:46:59;;;;;;;0.17;0.17;;;9.70;99.90;;;;;;4179716;28;20052;-88
2020/12/16 00:49:00;;;;;;;1.80;0.82;;;9.70;99.90;;;;;;4176914;28;20061;-88
2020/12/16 00:51:02;;;;;;;2.58;1.40;;;9.60;99.90;;;;;;4179671;28;20521;-89
2020/12/16 00:53:03;;;;;;;2.22;1.45;;;9.60;99.90;;;;;;4178929;28;20057;-89
2020/12/16 00:55:04;;;;;;;1.15;0.45;;;9.50;99.90;;;;;;4163490;28;20537;-89
2020/12/16 00:57:06;;;;;;;0.80;0.80;;;9.40;99.90;;;;;;4194299;28;20071;-88
2020/12/16 00:59:07;;;;;;;2.22;0.40;;;9.40;99.90;;;;;;4179763;28;20061;-88
2020/12/16 01:01:08;;;;;;;0.60;0.60;;;9.40;99.90;;;;;;4180271;28;20140;-89
2020/12/16 01:03:10;;;;;;;0.70;0.30;;;9.30;99.90;;;;;;4178864;28;20049;-88
2020/12/16 01:05:15;;;;;;;0.47;0.47;;;9.30;99.90;;;;;;4180267;28;20073;-88
2020/12/16 01:07:16;;;;;;;0.77;0.47;;;9.30;99.90;;;;;;4196027;28;20500;-88
2020/12/16 01:09:18;;;;;;;1.05;0.82;;;9.30;99.90;;;;;;4196137;28;20135;-88
2020/12/16 01:11:19;;;;;;;1.35;0.50;;;9.30;99.90;;;;;;4180254;28;20060;-88
2020/12/16 01:13:20;;;;;;;1.35;0.93;;;9.30;99.90;;;;;;4179928;28;20596;-89
2020/12/16 01:15:22;;;;;;;1.30;0.70;;;9.20;99.90;;;;;;4195376;28;20135;-88
2020/12/16 01:17:23;;;;;;;1.55;0.95;;;9.20;99.90;;;;;;4173926;28;20056;-88
2020/12/16 01:19:25;;;;;;;1.33;1.23;;;9.10;99.90;;;;;;4179492;28;20045;-89
2020/12/16 01:21:26;;;;;;;1.70;1.05;;;9.10;99.90;;;;;;4182025;28;20511;-89
2020/12/16 01:23:27;;;;;;;1.17;0.93;;;9.10;99.90;;;;;;4179322;28;20041;-88
2020/12/16 01:25:29;;;;;;;3.70;1.05;;;9.10;99.90;;;;;;4180374;28;20077;-89
2020/12/16 01:27:30;;;;;;;0.65;0.55;;;9.00;99.90;;;;;;4182517;28;20056;-89
2020/12/16 01:29:32;;;;;;;3.97;1.42;;;9.00;99.90;;;;;;4182890;28;20061;-88
2020/12/16 01:31:40;;;;;;;0.95;0.50;;;9.00;99.90;;;;;;4200810;28;20052;-88
2020/12/16 01:33:41;;;;;;;0.90;0.88;;;9.00;99.90;;;;;;4197883;28;20578;-88
2020/12/16 01:35:42;;;;;;;2.65;1.10;;;8.90;99.90;;;;;;4198824;28;20062;-89
2020/12/16 01:37:44;;;;;;;0.80;0.30;;;8.90;99.90;;;;;;4168816;28;20063;-89
2020/12/16 01:39:45;;;;;;;1.05;0.95;;;8.90;99.90;;;;;;4182374;28;20084;-90
2020/12/16 01:41:47;;;;;;;1.92;1.17;;;8.90;99.90;;;;;;4177423;28;20045;-88
2020/12/16 01:43:48;;;;;;;2.22;1.58;;;8.90;99.90;;;;;;4182406;28;20056;-88
2020/12/16 01:45:50;;;;;;;1.33;0.98;;;8.90;99.90;;;;;;4182758;28;20064;-88
2020/12/16 01:47:51;;;;;;;0.30;0.30;;;8.90;99.90;;;;;;4182247;28;20071;-88
2020/12/16 01:49:53;;;;;;;1.35;1.13;;;8.90;99.90;;;;;;4182208;28;20041;-88
2020/12/16 01:52:01;;;;;;;0.43;0.43;;;8.90;99.90;;;;;;4182257;28;20374;-88
2020/12/16 01:54:02;;;;;;;0.47;0.30;;;8.90;99.90;;;;;;4199115;28;20516;-88
2020/12/16 01:56:04;;;;;;;0.50;0.40;;;8.90;99.90;;;;;;4198309;28;20439;-88
2020/12/16 01:58:06;;;;;;;0.82;0.50;;;8.90;99.90;;;;;;4183040;28;20049;-88
2020/12/16 02:00:11;;;;;;;0.57;0.57;;;8.90;99.90;;;;;;4180809;28;20067;-88
2020/12/16 02:02:12;;;;;;;0.93;0.63;;;8.80;99.90;;;;;;4190126;28;20063;-86
2020/12/16 02:04:15;;;;;;;1.10;0.40;;;8.90;99.90;;;;;;4196856;28;20041;-89
2020/12/16 02:06:16;;;;;;;0.40;0.40;;;8.90;99.90;;;;;;4196306;28;20052;-87
2020/12/16 02:08:20;;;;;;;0.40;0.40;;;8.90;99.90;;;;;;4187509;28;20041;-87
2020/12/16 02:10:21;;;;;;;1.45;0.70;;;8.90;99.90;;;;;;4166523;28;20519;-88
2020/12/16 02:12:30;;;;;;;0.40;0.20;;;8.90;99.90;;;;;;4190657;28;20049;-89
2020/12/16 02:14:31;;;;;;;0.75;0.43;;;8.80;99.90;;;;;;4187523;28;20143;-88
2020/12/16 02:16:35;;;;;;;0.93;0.60;;;8.80;99.90;;;;;;4182922;28;20182;-88
2020/12/16 02:18:36;;;;;;;0.60;0.40;;;8.80;99.90;;;;;;4182275;28;20049;-88
2020/12/16 02:20:37;;;;;;;0.20;0.20;;;8.80;99.90;;;;;;4181902;28;20041;-88
2020/12/16 02:22:39;;;;;;;0.93;0.47;;;8.80;99.90;;;;;;4198629;28;20052;-89
2020/12/16 02:25:15;;;;;;;0.47;0.35;;;8.80;99.90;;;;;;4170429;28;20512;-88
2020/12/16 02:27:16;;;;;;;6.85;0.93;;;8.80;99.90;;;;;;4147070;28;20064;-88
2020/12/16 02:29:18;;;;;;;0.82;0.47;;;8.80;99.90;;;;;;4148573;28;20057;-88
2020/12/16 02:31:20;;;;;;;0.40;0.40;;;8.70;99.90;;;;;;4132304;28;20054;-89
2020/12/16 02:33:21;;;;;;;0.85;0.85;;;8.70;99.90;;;;;;4115675;28;20081;-88
2020/12/16 02:35:22;;;;;;;0.22;0.22;;;8.70;99.90;;;;;;4127587;28;20050;-88
2020/12/16 02:37:24;;;;;;;0.32;0.30;;;8.70;99.90;;;;;;4146373;28;20060;-89
2020/12/16 02:39:25;;;;;;;0.95;0.60;;;8.60;99.90;;;;;;4134879;28;20051;-88
2020/12/16 02:41:27;;;;;;;0.70;0.70;;;8.60;99.90;;;;;;4148120;28;20062;-88
2020/12/16 02:43:28;;;;;;;1.85;0.88;;;8.70;99.90;;;;;;4116399;28;20055;-88
2020/12/16 02:45:29;;;;;;;1.15;0.95;;;8.60;99.90;;;;;;4145512;28;20054;-88
2020/12/16 02:47:31;;;;;;;2.53;0.80;;;8.70;99.90;;;;;;4147205;28;20060;-88
2020/12/16 02:49:32;;;;;;;0.98;0.60;;;8.70;99.90;;;;;;4148269;28;20613;-89
2020/12/16 02:51:34;;;;;;;0.82;0.43;;;8.70;99.90;;;;;;4115865;28;20067;-88
2020/12/16 02:53:35;;;;;;;2.05;0.57;;;8.60;99.90;;;;;;4131587;28;20053;-88
2020/12/16 02:55:37;;;;;;;0.95;0.60;;;8.70;99.90;;;;;;4130635;28;20145;-89
2020/12/16 02:57:38;;;;;;;1.15;0.40;;;8.60;99.90;;;;;;4117567;28;20058;-89
2020/12/16 02:59:39;;;;;;;1.40;1.05;;;8.60;99.90;;;;;;4156266;28;20064;-88
2020/12/16 03:01:41;;;;;;;1.92;1.08;;;8.60;99.90;;;;;;4157266;28;20962;-88
2020/12/16 03:03:42;;;;;;;1.02;1.02;;;8.60;99.90;;;;;;4180442;28;20084;-88
2020/12/16 03:05:43;;;;;;;1.08;0.77;;;8.50;99.90;;;;;;4173239;28;20053;-89
2020/12/16 03:07:45;;;;;;;1.15;0.75;;;8.50;99.90;;;;;;4183898;28;20055;-89
2020/12/16 03:09:46;;;;;;;5.03;1.02;;;8.50;99.90;;;;;;4176219;28;20115;-89
2020/12/16 03:11:55;;;;;;;0.60;0.50;;;8.50;99.90;;;;;;4181282;28;20049;-89
2020/12/16 03:13:56;;;;;;;1.40;0.45;;;8.50;99.90;;;;;;4181227;28;20113;-88
2020/12/16 03:15:58;;;;;;;3.53;0.80;;;8.40;99.90;;;;;;4181605;28;20065;-88
2020/12/16 03:17:59;;;;;;;0.43;0.30;;;8.40;99.90;;;;;;4188100;28;20580;-89
2020/12/16 03:20:00;;;;;;;0.43;0.43;;;8.30;99.90;;;;;;4182115;28;20452;-90
2020/12/16 03:22:01;;;;;;;0.30;0.30;;;8.40;99.90;;;;;;4178579;28;20056;-88
2020/12/16 03:24:03;;;;;;;0.20;0.20;;;8.30;99.90;;;;;;4197545;28;20052;-88
2020/12/16 03:26:05;;;;;;;0.75;0.60;;;8.40;99.90;;;;;;4186854;28;20049;-89
2020/12/16 03:28:07;;;;;;;0.22;0.22;;;8.40;99.90;;;;;;4181030;28;20049;-89
2020/12/16 03:30:08;;;;;;;1.15;0.63;;;8.50;99.90;;;;;;4178975;28;20505;-88
2020/12/16 03:32:10;;;;;;;0.38;0.32;;;8.50;99.90;;;;;;4183332;28;20103;-88
2020/12/16 03:34:11;;;;;;;0.98;0.40;;;8.50;99.90;;;;;;4179759;28;20049;-89
2020/12/16 03:36:18;;;;;;;0.17;0.17;;;8.40;99.90;;;;;;4176246;28;20049;-88
2020/12/16 03:38:19;;;;;;;0.68;0.30;;;8.40;99.90;;;;;;4189013;28;20048;-88
2020/12/16 03:40:20;;;;;;;0.95;0.40;;;8.40;99.90;;;;;;4181495;28;20056;-89
2020/12/16 03:42:21;;;;;;;0.55;0.40;;;8.30;99.90;;;;;;4172916;28;20144;-88
2020/12/16 03:44:23;;;;;;;0.60;0.60;;;8.30;99.90;;;;;;4193590;28;20106;-89
2020/12/16 03:46:28;;;;;;;0.45;0.43;;;8.30;99.90;;;;;;4194931;28;20131;-88
2020/12/16 03:48:29;;;;;;;1.45;0.43;;;8.30;99.90;;;;;;4176335;28;20417;-88
2020/12/16 03:50:31;;;;;;;0.73;0.43;;;8.30;99.90;;;;;;4191841;28;20249;-88
2020/12/16 03:52:33;;;;;;;2.55;0.77;;;8.20;99.90;;;;;;4180598;28;20056;-88
2020/12/16 03:54:34;;;;;;;0.40;0.40;;;8.30;99.90;;;;;;4171426;28;20064;-89
2020/12/16 03:56:35;;;;;;;0.30;0.30;;;8.20;99.90;;;;;;4180493;28;20053;-88
2020/12/16 03:58:46;;;;;;;0.40;0.40;;;8.20;99.90;;;;;;4180425;28;20075;-89
2020/12/16 04:00:47;;;;;;;0.50;0.35;;;8.20;99.90;;;;;;4196691;28;20151;-89
2020/12/16 04:02:49;;;;;;;1.30;0.47;;;8.20;99.90;;;;;;4176028;28;20056;-88
2020/12/16 04:04:50;;;;;;;0.40;0.40;;;8.20;99.90;;;;;;4193220;28;20047;-90
2020/12/16 04:06:55;;;;;;;0.82;0.60;;;8.20;99.90;;;;;;4180544;28;20557;-88
2020/12/16 04:08:56;;;;;;;0.75;0.75;;;8.20;99.90;;;;;;4173950;28;20049;-88
2020/12/16 04:10:58;;;;;;;0.88;0.30;;;8.20;99.90;;;;;;4181214;28;20591;-88
2020/12/16 04:12:59;;;;;;;0.60;0.25;;;8.20;99.90;;;;;;4197759;28;20496;-88
2020/12/16 04:15:00;;;;;;;0.30;0.30;;;8.20;99.90;;;;;;4186024;28;20044;-88
2020/12/16 04:17:02;;;;;;;0.52;0.30;;;8.20;99.90;;;;;;4182771;28;20063;-88
2020/12/16 04:19:04;;;;;;;0.85;0.47;;;8.20;99.90;;;;;;4180940;28;20067;-88
2020/12/16 04:21:07;;;;;;;0.32;0.30;;;8.20;99.90;;;;;;4184763;28;20048;-89
2020/12/16 04:23:09;;;;;;;0.85;0.50;;;8.30;99.90;;;;;;4196803;28;20048;-88
2020/12/16 04:25:10;;;;;;;0.73;0.73;;;8.30;99.90;;;;;;4180855;28;20055;-87
2020/12/16 04:27:11;;;;;;;1.52;0.70;;;8.30;99.90;;;;;;4179402;28;20131;-88
2020/12/16 04:29:13;;;;;;;0.35;0.30;;;8.30;99.90;;;;;;4171030;28;20144;-88
2020/12/16 04:31:14;;;;;;;0.30;0.30;;;8.20;99.90;;;;;;4163911;28;20517;-89
2020/12/16 04:37:49;;;;;;;0.45;0.45;;;8.10;99.90;;;;;;4147323;23;20278;-88
2020/12/16 04:39:52;;;;;;;0.20;0.20;;;8.10;99.90;;;;;;4099648;28;20051;-88
2020/12/16 04:41:53;;;;;;;0.65;0.52;;;8.00;99.90;;;;;;4113645;28;20055;-88
2020/12/16 04:43:55;;;;;;;0.20;0.20;;;8.00;99.90;;;;;;4099734;28;20051;-88
2020/12/16 04:45:56;;;;;;;0.55;0.55;;;8.00;99.90;;;;;;4106458;28;20052;-89
2020/12/16 04:47:57;;;;;;;0.20;0.20;;;8.00;99.90;;;;;;4114118;28;20073;-88
2020/12/16 04:49:59;;;;;;;1.38;0.40;;;8.10;99.90;;;;;;4117537;28;20059;-89
2020/12/16 04:52:00;;;;;;;0.47;0.22;;;8.10;99.90;;;;;;4125509;28;20046;-88
2020/12/16 04:54:02;;;;;;;1.42;0.60;;;8.10;99.90;;;;;;4116933;28;20098;-89
2020/12/16 04:56:03;;;;;;;0.30;0.20;;;8.10;99.90;;;;;;4120228;28;20055;-89
2020/12/16 04:58:05;;;;;;;0.20;0.20;;;8.10;99.90;;;;;;4098601;28;20055;-88
2020/12/16 05:00:07;;;;;;;0.50;0.50;;;8.10;99.90;;;;;;4098626;28;20055;-89
2020/12/16 05:02:09;;;;;;;0.63;0.50;;;8.20;99.90;;;;;;4099273;28;20470;-88
2020/12/16 05:04:11;;;;;;;0.40;0.40;;;8.20;99.90;;;;;;4093376;28;20070;-90
2020/12/16 05:06:12;;;;;;;0.85;0.30;;;8.20;99.90;;;;;;4088186;29;20130;-88
2020/12/16 05:08:14;;;;;;;0.40;0.40;;;8.20;99.90;;;;;;4099295;28;20059;-88
2020/12/16 05:10:29;;;;;;;0.20;0.20;;;8.20;99.90;;;;;;4102878;28;20711;-88
2020/12/16 05:12:30;;;;;;;0.30;0.30;;;8.20;99.90;;;;;;4111911;28;20061;-88
2020/12/16 05:14:32;;;;;;;0.60;0.32;;;8.10;99.90;;;;;;4083609;28;20051;-88
2020/12/16 05:16:50;;;;;;;0.30;0.30;;;8.10;99.90;;;;;;4090814;28;20122;-89
2020/12/16 05:18:51;;;;;;;0.85;0.40;;;8.10;99.90;;;;;;4109090;28;20051;-88
2020/12/16 05:20:59;;;;;;;0.43;0.22;;;8.10;99.90;;;;;;4098581;28;20058;-88
2020/12/16 05:23:01;;;;;;;0.60;0.43;;;8.00;99.90;;;;;;4103085;28;20055;-88
2020/12/16 05:25:06;;;;;;;0.32;0.25;;;8.00;99.90;;;;;;4095890;28;20055;-88
2020/12/16 05:27:09;;;;;;;0.73;0.60;;;7.90;99.90;;;;;;4110167;28;20057;-88
2020/12/16 05:29:10;;;;;;;0.20;0.20;;;7.90;99.90;;;;;;4099285;28;20082;-88
2020/12/16 05:31:12;;;;;;;0.60;0.47;;;7.90;99.90;;;;;;4098569;28;20130;-88
2020/12/16 05:33:13;;;;;;;0.63;0.55;;;7.90;99.90;;;;;;4096020;28;20054;-88
2020/12/16 05:35:28;;;;;;;0.30;0.30;;;7.90;99.90;;;;;;4099525;28;20408;-88
2020/12/16 05:37:38;;;;;;;0.10;0.10;;;7.90;99.90;;;;;;4112263;28;20059;-88
2020/12/16 05:39:40;;;;;;;1.02;0.73;;;7.90;99.90;;;;;;4113457;28;20507;-88
2020/12/16 05:41:41;;;;;;;1.00;0.47;;;7.90;99.90;;;;;;4083059;28;20522;-88
2020/12/16 05:43:42;;;;;;;3.63;0.45;;;7.90;99.90;;;;;;4098657;28;20134;-88
2020/12/16 05:45:43;;;;;;;0.52;0.47;;;7.90;99.90;;;;;;4116559;28;20483;-88
2020/12/16 05:47:57;;;;;;;1.55;0.65;;;7.80;99.90;;;;;;4085324;28;20043;-88
2020/12/16 05:49:59;;;;;;;2.05;0.70;;;7.80;99.90;;;;;;4111164;28;20055;-88
2020/12/16 05:52:04;;;;;;;0.30;0.30;;;7.80;99.90;;;;;;4098134;28;20058;-88
2020/12/16 05:54:12;;;;;;;;;;;7.70;99.90;;;;;;4113709;28;20078;-88
2020/12/16 05:56:13;;;;;;;0.57;0.30;;;7.70;99.90;;;;;;4128568;28;19921;-88
2020/12/16 05:58:15;;;;;;;0.30;0.30;;;7.70;99.90;;;;;;4129380;28;20550;-87
2020/12/16 06:00:19;;;;;;;0.35;0.35;;;7.70;99.90;;;;;;4098689;28;20068;-88
2020/12/16 06:02:20;;;;;;;0.20;0.15;;;7.60;99.90;;;;;;4110105;28;20061;-88
2020/12/16 06:04:21;;;;;;;0.45;0.30;;;7.50;99.90;;;;;;4108536;28;20054;-88
2020/12/16 06:06:23;;;;;;;0.82;0.50;;;7.50;99.90;;;;;;4125157;28;20055;-88
2020/12/16 06:08:25;;;;;;;1.27;0.80;;;7.50;99.90;;;;;;4092757;28;20138;-88
2020/12/16 06:10:26;;;;;;;0.40;0.38;;;7.50;99.90;;;;;;4109526;28;20057;-88
2020/12/16 06:12:28;;;;;;;0.40;0.40;;;7.50;99.90;;;;;;4115267;28;20129;-89
2020/12/16 06:14:33;;;;;;;0.82;0.57;;;7.50;99.90;;;;;;4099346;28;20597;-89
2020/12/16 06:16:37;;;;;;;1.02;0.50;;;7.50;99.90;;;;;;4101007;28;20058;-88
2020/12/16 06:18:40;;;;;;;0.70;0.70;;;7.60;99.90;;;;;;4100038;28;20058;-88
2020/12/16 06:20:41;;;;;;;0.47;0.40;;;7.50;99.90;;;;;;4090234;28;20074;-90
2020/12/16 06:22:43;;;;;;;0.50;0.40;;;7.50;99.90;;;;;;4115296;28;20058;-91
2020/12/16 06:24:44;;;;;;;1.50;0.95;;;7.50;99.90;;;;;;4131485;28;20101;-91
2020/12/16 06:26:45;;;;;;;0.77;0.77;;;7.50;99.90;;;;;;4120111;28;20047;-85
2020/12/16 06:28:46;;;;;;;0.95;0.40;;;7.40;99.90;;;;;;4109679;28;20058;-90
2020/12/16 06:30:50;;;;;;;0.63;0.63;;;7.50;99.90;;;;;;4111916;28;20045;-84
2020/12/16 06:33:20;;;;;;;0.40;0.40;;;7.40;99.90;;;;;;4121054;28;20058;-90
2020/12/16 06:35:21;;;;;;;0.85;0.52;;;7.40;99.90;;;;;;4114683;28;20051;-91
2020/12/16 06:37:22;;;;;;;0.30;0.30;;;7.40;99.90;;;;;;4084776;29;20155;-90
2020/12/16 06:39:24;;;;;;;0.68;0.68;;;7.40;99.90;;;;;;4084223;29;20515;-91
2020/12/16 06:41:27;;;;;;;0.22;0.22;;;7.40;99.90;;;;;;4102003;28;20522;-86
2020/12/16 06:43:31;;;;;;;5.00;0.77;;;7.40;99.90;;;;;;4100079;28;20043;-91
2020/12/16 06:45:32;;;;;;;0.80;0.80;;;7.40;99.90;;;;;;4111681;28;20059;-91
2020/12/16 06:47:33;;;;;;;0.85;0.85;;;7.40;99.90;;;;;;4116160;28;20054;-89
2020/12/16 06:49:35;;;;;;;1.63;0.90;;;7.40;99.90;;;;;;4092297;28;20050;-91
2020/12/16 06:51:43;;;;;;;0.88;0.35;;;7.30;99.90;;;;;;4076688;29;20062;-88
2020/12/16 06:53:45;;;;;;;0.30;0.30;;;7.30;99.90;;;;;;4102171;28;20058;-89
2020/12/16 06:56:06;;;;;;;0.40;0.30;;;7.40;99.90;;;;;;4105659;28;20118;-91
2020/12/16 06:58:07;;;;;;;3.03;1.20;;;7.30;99.90;;;;;;4111333;28;20588;-89
2020/12/16 07:00:20;;;;;;;1.42;0.57;;;7.30;99.90;;;;;;4089395;29;20047;-90
2020/12/16 07:02:34;;;;;;;1.27;0.60;;;7.30;99.90;;;;;;4114067;28;20134;-90
2020/12/16 07:04:35;;;;;;;0.75;0.75;;;7.20;99.90;;;;;;4100647;28;20142;-91
2020/12/16 07:06:38;;;;;;;1.10;0.75;;;7.20;99.90;;;;;;4092289;28;20085;-90
2020/12/16 07:08:39;;;;;;;0.73;0.68;;;7.30;99.90;;;;;;4113589;28;20649;-90
2020/12/16 07:10:47;;;;;;;0.98;0.68;;;7.30;99.90;;;;;;4094183;28;20534;-91
2020/12/16 07:12:48;;;;;;;0.70;0.70;;;7.30;99.90;;;;;;4121478;28;20050;-87
2020/12/16 07:14:50;;;;;;;1.52;1.05;;;7.30;99.90;;;;;;4132652;28;20065;-90
2020/12/16 07:16:51;;;;;;;0.30;0.30;;;7.20;99.90;;;;;;4116833;28;20051;-90
2020/12/16 07:18:53;;;;;;;0.63;0.63;;;7.20;99.90;;;;;;4127130;28;20064;-91
2020/12/16 07:21:06;;;;;;;1.60;0.60;;;7.30;99.90;;;;;;4133958;28;20054;-90
2020/12/16 07:23:07;;;;;;;1.38;1.05;;;7.20;99.90;;;;;;4123831;28;20042;-89
2020/12/16 07:25:08;;;;;;;0.80;0.80;;;7.20;99.90;;;;;;4110032;28;20051;-89
2020/12/16 07:27:10;;;;;;;0.93;0.85;;;7.20;99.90;;;;;;4114964;28;20137;-90
2020/12/16 07:29:30;;;;;;;0.75;0.70;;;7.20;99.90;;;;;;4116129;28;20049;-93
2020/12/16 07:31:31;;;;;;;0.25;0.25;;;7.20;99.90;;;;;;4112775;28;20109;-90
2020/12/16 07:33:33;;;;;;;1.08;0.85;;;7.20;99.90;;;;;;4129726;28;20039;-87
2020/12/16 07:35:44;;;;;;;1.02;0.93;;;7.20;99.90;;;;;;4099992;28;20059;-88
2020/12/16 07:37:45;;;;;;;0.47;0.43;;;7.20;99.90;;;;;;4116849;28;20548;-90
2020/12/16 07:39:55;;;;;;;0.43;0.35;;;7.30;99.90;;;;;;4131220;28;20052;-91
2020/12/16 07:41:57;;;;;;;2.42;2.28;;;7.30;99.90;;;;;;4115569;28;20046;-92
2020/12/16 07:43:59;;;;;;;0.65;0.40;;;7.30;99.90;;;;;;4116566;28;20047;-92
2020/12/16 07:46:04;;;;;;;1.40;0.45;;;7.30;99.90;;;;;;4131263;28;20533;-90
2020/12/16 07:48:07;;;;;;;0.90;0.55;;;7.30;99.90;;;;;;4113642;28;20085;-93
2020/12/16 07:50:11;;;;;;;0.55;0.55;;;7.30;99.90;;;;;;4124654;28;20633;-92
2020/12/16 07:52:12;;;;;;;0.45;0.40;;;7.30;99.90;;;;;;4107761;28;20184;-93
2020/12/16 07:54:13;;;;;;;0.60;0.60;;;7.30;99.90;;;;;;4119473;28;20054;-92
2020/12/16 07:56:16;;;;;;;2.15;1.95;;;7.40;99.90;;;;;;4111621;28;20046;-94
2020/12/16 07:58:18;;;;;;;0.65;0.52;;;7.40;99.90;;;;;;4111059;28;20051;-92
2020/12/16 08:00:22;;;;;;;0.95;0.63;;;7.40;99.90;;;;;;4115035;28;20049;-86
2020/12/16 08:02:24;;;;;;;2.47;1.23;;;7.50;99.90;;;;;;4123384;28;20050;-92
2020/12/16 08:04:25;;;;;;;0.95;0.90;;;7.50;99.90;;;;;;4105286;28;20051;-92
2020/12/16 08:06:26;;;;;;;0.43;0.43;;;7.60;99.90;;;;;;4139762;28;20046;-88
2020/12/16 08:08:28;;;;;;;1.98;0.73;;;7.60;99.90;;;;;;4148413;28;20046;-83
2020/12/16 08:10:29;;;;;;;0.50;0.50;;;7.60;99.90;;;;;;4128436;28;20074;-87
2020/12/16 08:12:31;;;;;;;1.02;0.60;;;7.60;99.90;;;;;;4149115;28;20118;-88
2020/12/16 08:14:32;;;;;;;1.45;0.45;;;7.60;99.90;;;;;;4126893;28;20122;-88
2020/12/16 08:16:34;;;;;;;0.68;0.68;;;7.60;99.90;;;;;;4138202;28;20090;-88
2020/12/16 08:18:38;;;;;;;0.57;0.52;;;7.60;99.90;;;;;;4135469;28;20066;-88
2020/12/16 08:20:41;;;;;;;0.52;0.52;;;7.70;99.90;;;;;;4139255;28;20108;-86
2020/12/16 08:22:43;;;;;;;1.75;0.55;;;7.70;99.90;;;;;;4139881;28;20049;-89
2020/12/16 08:24:58;;;;;;;0.50;0.50;;;7.70;99.90;;;;;;4108137;28;20031;-92
2020/12/16 08:27:00;;;;;;;5.10;2.08;;;7.70;99.90;;;;;;4142747;28;20406;-87
2020/12/16 08:29:04;;;;;;;0.80;0.80;;;7.70;99.90;;;;;;4120082;28;20047;-87
2020/12/16 08:31:06;;;;;;;0.68;0.68;;;7.80;99.90;;;;;;4130710;28;20053;-89
2020/12/16 08:33:14;;;;;;;0.60;0.60;;;7.80;99.90;;;;;;4142604;28;20073;-83
2020/12/16 08:35:20;;;;;;;5.68;1.17;;;7.90;99.90;;;;;;4131955;28;20050;-89
2020/12/16 08:37:22;;;;;;;0.55;0.55;;;7.90;99.90;;;;;;4141474;28;20138;-87
2020/12/16 08:39:24;;;;;;;0.88;0.55;;;8.00;99.90;;;;;;4129527;28;20109;-87
2020/12/16 08:41:26;;;;;;;0.38;0.32;;;8.10;99.90;;;;;;4145791;28;20043;-86
2020/12/16 08:43:29;;;;;;;0.85;0.85;;;8.10;99.90;;;;;;4149034;28;20057;-88
2020/12/16 08:45:31;;;;;;;1.42;0.70;;;8.20;99.90;;;;;;4146798;28;20046;-89
2020/12/16 08:47:32;;;;;;;1.25;0.88;;;8.30;99.90;;;;;;4115574;28;20054;-88
2020/12/16 08:49:33;;;;;;;0.70;0.50;;;8.30;99.90;;;;;;4146081;28;20066;-90
2020/12/16 08:51:38;;;;;;;0.90;0.68;;;8.40;99.90;;;;;;4145276;28;20054;-89
2020/12/16 08:53:50;;;;;;;0.45;0.38;;;8.50;99.90;;;;;;4132076;28;20110;-87
2020/12/16 08:55:52;;;;;;;2.17;0.80;;;8.50;99.90;;;;;;4130886;28;20051;-91
2020/12/16 08:58:00;;;;;;;1.05;0.65;;;8.60;99.90;;;;;;4125657;28;20053;-88
2020/12/16 09:00:07;;;;;;;1.05;0.68;;;8.60;99.90;;;;;;4131351;28;20050;-86
2020/12/16 09:02:09;;;;;;;0.70;0.52;;;8.70;99.90;;;;;;4127195;28;20047;-88
2020/12/16 09:04:10;;;;;;;0.95;0.85;;;8.80;99.90;;;;;;4124494;28;20081;-89
2020/12/16 09:06:14;;;;;;;0.50;0.40;;;8.90;99.90;;;;;;4101164;28;20483;-84
2020/12/16 09:08:15;;;;;;;1.05;0.73;;;9.00;99.90;;;;;;4144982;28;20105;-90
2020/12/16 09:10:19;;;;;;;0.73;0.73;;;9.00;99.90;;;;;;4129176;28;20050;-90
2020/12/16 09:12:22;;;;;;;0.88;0.88;;;9.10;99.90;;;;;;4121765;28;20062;-89
2020/12/16 09:14:24;;;;;;;1.35;1.00;;;9.10;99.90;;;;;;4117384;28;20050;-91
2020/12/16 09:16:25;;;;;;;0.75;0.57;;;9.20;99.90;;;;;;4109623;28;20104;-90
2020/12/16 09:18:27;;;;;;;0.80;0.52;;;9.20;99.90;;;;;;4101691;28;20051;-91
2020/12/16 09:20:30;;;;;;;0.70;0.63;;;9.30;99.90;;;;;;4131414;28;20500;-91
2020/12/16 09:22:31;;;;;;;0.55;0.55;;;9.30;99.90;;;;;;4112609;28;20415;-91
2020/12/16 09:24:32;;;;;;;0.60;0.60;;;9.40;99.90;;;;;;4111993;28;20045;-90
2020/12/16 09:26:43;;;;;;;0.30;0.30;;;9.50;99.90;;;;;;4115068;28;20058;-90
2020/12/16 09:28:45;;;;;;;0.60;0.60;;;9.60;99.90;;;;;;4106904;28;20411;-91
2020/12/16 09:30:46;;;;;;;0.80;0.50;;;9.60;99.90;;;;;;4123379;28;20049;-90
2020/12/16 09:32:47;;;;;;;0.40;0.40;;;9.70;99.90;;;;;;4117068;28;20102;-90
2020/12/16 09:34:50;;;;;;;1.15;0.55;;;9.80;99.90;;;;;;4121981;28;20062;-90
2020/12/16 09:36:51;;;;;;;0.70;0.52;;;9.90;99.90;;;;;;4123170;28;20137;-90
2020/12/16 09:38:55;;;;;;;0.20;0.20;;;9.90;99.90;;;;;;4101963;28;20050;-90
2020/12/16 09:40:58;;;;;;;0.73;0.73;;;10.00;99.90;;;;;;4115312;28;20051;-88
2020/12/16 09:43:02;;;;;;;0.20;0.20;;;10.10;99.90;;;;;;4130604;28;20175;-89
2020/12/16 09:45:15;;;;;;;1.60;1.08;;;10.10;99.90;;;;;;4130473;28;20054;-90
2020/12/16 09:47:20;;;;;;;2.05;0.90;;;10.20;99.90;;;;;;4088677;28;20056;-90
2020/12/16 09:49:22;;;;;;;0.40;0.30;;;10.20;99.90;;;;;;4116955;28;20058;-90
2020/12/16 09:51:23;;;;;;;1.35;0.93;;;10.30;99.90;;;;;;4133651;28;20061;-91
2020/12/16 09:53:24;;;;;;;0.40;0.35;;;10.40;99.90;;;;;;4103626;28;20051;-91
2020/12/16 09:55:26;;;;;;;0.45;0.35;;;10.50;99.90;;;;;;4131172;28;20446;-89
2020/12/16 09:57:44;;;;;;;0.20;0.20;;;10.60;99.90;;;;;;4119663;28;20046;-88
2020/12/16 09:59:45;;;;;;;0.40;0.30;;;10.70;99.90;;;;;;4101723;28;20061;-90
2020/12/16 10:01:49;;;;;;;0.30;0.20;;;10.70;99.90;;;;;;4116293;28;20577;-89
2020/12/16 10:03:51;;;;;;;0.30;0.30;;;10.80;99.90;;;;;;4113077;28;20426;-89
2020/12/16 10:05:52;;;;;;;0.50;0.40;;;10.90;99.90;;;;;;4118018;28;20082;-88
2020/12/16 10:07:53;;;;;;;0.55;0.55;;;10.90;99.90;;;;;;4134447;28;20053;-88
2020/12/16 10:09:55;;;;;;;3.40;0.45;;;11.00;99.90;;;;;;4133700;28;20054;-88
2020/12/16 10:11:56;;;;;;;0.68;0.25;;;11.00;99.90;;;;;;4147096;28;20106;-87
2020/12/16 10:13:57;;;;;;;0.52;0.52;;;11.10;99.90;;;;;;4121100;28;20047;-86
2020/12/16 10:15:58;;;;;;;0.20;0.20;;;11.20;99.90;;;;;;4134263;28;20098;-85
2020/12/16 10:18:00;;;;;;;0.55;0.50;;;11.30;99.90;;;;;;4132858;28;20043;-88
2020/12/16 10:20:03;;;;;;;0.77;0.57;;;11.30;99.90;;;;;;4123548;28;20058;-87
2020/12/16 10:22:04;;;;;;;0.20;0.20;;;11.40;99.90;;;;;;4110308;28;20527;-89
2020/12/16 10:24:05;;;;;;;0.15;0.15;;;11.50;99.80;;;;;;4100642;28;20063;-87
2020/12/16 10:26:07;;;;;;;0.15;0.15;;;11.50;99.70;;;;;;4105686;28;20074;-89
2020/12/16 10:28:10;;;;;;;0.45;0.35;;;11.70;99.00;;;;;;4126068;28;20050;-88
2020/12/16 10:30:12;;;;;;;0.40;0.40;;;11.70;99.30;;;;;;4123176;28;20136;-89
2020/12/16 10:32:14;;;;;;;2.45;0.40;;;11.80;99.40;;;;;;4109280;28;20051;-90
2020/12/16 10:34:19;;;;;;;0.47;0.10;;;11.90;99.00;;;;;;4133788;28;20050;-89
2020/12/16 10:36:20;;;;;;;;;;;11.90;98.70;;;;;;4105508;28;20522;-90
2020/12/16 10:38:22;;;;;;;0.30;0.28;;;12.00;98.20;;;;;;4138603;28;20384;-90
2020/12/16 10:40:23;;;;;;;0.28;0.20;;;12.10;98.30;;;;;;4121529;28;20582;-90
2020/12/16 10:42:24;;;;;;;0.95;0.95;;;12.20;97.80;;;;;;4143602;28;20054;-91
2020/12/16 10:44:26;;;;;;;0.20;0.20;;;12.30;97.40;;;;;;4146616;28;20053;-88
2020/12/16 10:46:27;;;;;;;0.10;0.10;;;12.30;97.10;;;;;;4130226;28;20118;-89
2020/12/16 10:48:28;;;;;;;0.30;0.20;;;12.40;96.10;;;;;;4151203;28;20030;-87
2020/12/16 10:50:30;;;;;;;0.25;0.25;;;12.50;96.40;;;;;;4119081;28;20035;-87